Manoa — KDBG — position and weather

sailwx.info

Track history (hours):
 
Tides and Currents Weather Stations Pressure Air Temp Water Temp Dewpoint Dewpoint Depression Visibility Wind Speed Wind Dir Waves Ship Positions

Manoa

Owner: MATSON NAVIGATION CO, RALEIGH, NC. More information available from US FCC via Universal Licensing System and Coast Guard Vessel Documentation Center.

Last reported at 2016-Sep-30 18:00 UTC. Time now 2016-Oct-01 01:30 UTC.
Position N 25°36' W 150°42'.

Type: Cargo ship. MMSI: 366562000.

Wind from 090 at 18 knots

Waves 2.0 meters (7 feet), 5 second period

Barometer 1021.6 mb
Air temperature 24.4 ° C
Visibility: greater than 10.8 NM
Dewpoint 15.3 ° C
Water temperature 27.2 ° C

Date/timePositionNaut miles runAvg speedWind from/ knotsBaromVisibWave heightAir tempDewpointWater temp
2016-Sep-30 18:00N 25°36' W 150°42'79222.0 090 / 181021.610.8 2.024.415.327.2
2016-Sep-29 06:00N 32°18' W 137°42'24820.7 070 / 181021.8 5.4 1.020.017.423.0
2016-Sep-28 18:00N 34°12' W 133°18'20921.8 060 / 181025.110.8 1.518.913.121.7
2016-Sep-28 08:23N 35°37' W 129°25'10822.0
2016-Sep-28 03:28N 36°18' W 127°21'7922.6
2016-Sep-28 00:00N 36°42' W 125°48'613.8 330 / 191013.2 5.4 1.016.713.919.4
2016-Sep-27 23:34N 36°47' W 125°45'8220.5
2016-Sep-27 19:34N 37°16' W 124°08'8316.7
2016-Sep-27 14:33N 37°48' W 122°31'9 9.4
2016-Sep-27 13:33N 37°48' W 122°20'1 0.4
2016-Sep-27 10:31N 37°48' W 122°18'0 0.0
2016-Sep-27 00:31N 37°48' W 122°18'21 5.2
2016-Sep-26 20:33N 37°46' W 122°44'1616.3
2016-Sep-26 19:33N 37°54' W 123°03'2113.3
2016-Sep-26 18:00N 38°06' W 123°24'4920.3 090 / 101019.310.8 0.516.7 7.814.4
2016-Sep-26 15:33N 38°34' W 124°16'4522.6
2016-Sep-26 13:33N 39°17' W 124°34'25322.3
2016-Sep-26 02:11N 43°29' W 125°11'1422.6
2016-Sep-26 01:33N 43°43' W 125°12'2623.3
2016-Sep-26 00:27N 44°09' W 125°13'6622.8
2016-Sep-25 21:34N 45°14' W 125°20'7621.2
2016-Sep-25 18:00N 46°30' W 125°18'1329.8 150 / 131030.310.8 0.516.713.718.3
2016-Sep-25 17:34N 46°42' W 125°23'2120.8
2016-Sep-25 16:34N 47°03' W 125°21'2120.5
2016-Sep-25 15:32N 47°24' W 125°22'6020.0
2016-Sep-25 12:32N 48°24' W 125°11'1818.8
2016-Sep-25 11:33N 48°31' W 124°46'2423.6
2016-Sep-25 10:32N 48°22' W 124°12'2322.9
2016-Sep-25 09:33N 48°16' W 123°39'3316.4
2016-Sep-25 07:33N 48°12' W 122°50'4214.0
2016-Sep-25 04:33N 47°35' W 122°21'0 0.0
2016-Sep-25 00:33N 47°35' W 122°21'0 0.0
2016-Sep-24 22:30N 47°35' W 122°21'0 0.0
2016-Sep-24 21:33N 47°35' W 122°21'0 0.0
2016-Sep-24 19:33N 47°35' W 122°21'0 0.0
2016-Sep-24 18:33N 47°35' W 122°21'0 0.0
2016-Sep-24 17:33N 47°35' W 122°21'0 0.0
2016-Sep-24 16:34N 47°35' W 122°21'0 0.0
2016-Sep-24 14:33N 47°35' W 122°21'0 0.0
2016-Sep-24 12:33N 47°35' W 122°21'0 0.0
2016-Sep-24 10:30N 47°35' W 122°21'0 0.1
2016-Sep-24 09:33N 47°35' W 122°21'7913.1
2016-Sep-24 03:33N 48°15' W 124°01'2322.7
2016-Sep-24 02:33N 48°25' W 124°32'2222.4
2016-Sep-24 01:34N 48°28' W 125°06'2121.3
2016-Sep-24 00:33N 48°17' W 125°33'13620.7
2016-Sep-23 18:00N 46°54' W 128°12'51221.3 310 / 301018.010.8 3.015.6 7.917.8
2016-Sep-22 18:00N 41°24' W 137°18'54722.8 220 / 281023.410.8 1.521.113.521.7
2016-Sep-21 18:00N 34°48' W 145°18'   090 / 141028.510.8 1.021.113.525.0
Track history (hours):
 
Tides and Currents Weather Stations Pressure Air Temp Water Temp Dewpoint Dewpoint Depression Visibility Wind Speed Wind Dir Waves Ship Positions

Manoa

Owner: MATSON NAVIGATION CO, RALEIGH, NC. More information available from US FCC via Universal Licensing System and Coast Guard Vessel Documentation Center.

Last reported at 2016-Sep-30 18:00 UTC. Time now 2016-Oct-01 01:30 UTC.
Position N 25°36' W 150°42'.

Type: Cargo ship. MMSI: 366562000.

Wind from 090 at 18 knots

Waves 2.0 meters (7 feet), 5 second period

Barometer 1021.6 mb
Air temperature 24.4 ° C
Visibility: greater than 10.8 NM
Dewpoint 15.3 ° C
Water temperature 27.2 ° C

Date/timePositionNaut miles runAvg speedWind from/ knotsBaromVisibWave heightAir tempDewpointWater temp
2016-Sep-30 18:00N 25°36' W 150°42'79222.0 090 / 181021.610.8 2.024.415.327.2
2016-Sep-29 06:00N 32°18' W 137°42'24820.7 070 / 181021.8 5.4 1.020.017.423.0
2016-Sep-28 18:00N 34°12' W 133°18'20921.8 060 / 181025.110.8 1.518.913.121.7
2016-Sep-28 08:23N 35°37' W 129°25'10822.0
2016-Sep-28 03:28N 36°18' W 127°21'7922.6
2016-Sep-28 00:00N 36°42' W 125°48'613.8 330 / 191013.2 5.4 1.016.713.919.4
2016-Sep-27 23:34N 36°47' W 125°45'8220.5
2016-Sep-27 19:34N 37°16' W 124°08'8316.7
2016-Sep-27 14:33N 37°48' W 122°31'9 9.4
2016-Sep-27 13:33N 37°48' W 122°20'1 0.4
2016-Sep-27 10:31N 37°48' W 122°18'0 0.0
2016-Sep-27 00:31N 37°48' W 122°18'21 5.2
2016-Sep-26 20:33N 37°46' W 122°44'1616.3
2016-Sep-26 19:33N 37°54' W 123°03'2113.3
2016-Sep-26 18:00N 38°06' W 123°24'4920.3 090 / 101019.310.8 0.516.7 7.814.4
2016-Sep-26 15:33N 38°34' W 124°16'4522.6
2016-Sep-26 13:33N 39°17' W 124°34'25322.3
2016-Sep-26 02:11N 43°29' W 125°11'1422.6
2016-Sep-26 01:33N 43°43' W 125°12'2623.3
2016-Sep-26 00:27N 44°09' W 125°13'6622.8
2016-Sep-25 21:34N 45°14' W 125°20'7621.2
2016-Sep-25 18:00N 46°30' W 125°18'1329.8 150 / 131030.310.8 0.516.713.718.3
2016-Sep-25 17:34N 46°42' W 125°23'2120.8
2016-Sep-25 16:34N 47°03' W 125°21'2120.5
2016-Sep-25 15:32N 47°24' W 125°22'6020.0
2016-Sep-25 12:32N 48°24' W 125°11'1818.8
2016-Sep-25 11:33N 48°31' W 124°46'2423.6
2016-Sep-25 10:32N 48°22' W 124°12'2322.9
2016-Sep-25 09:33N 48°16' W 123°39'3316.4
2016-Sep-25 07:33N 48°12' W 122°50'4214.0
2016-Sep-25 04:33N 47°35' W 122°21'0 0.0
2016-Sep-25 00:33N 47°35' W 122°21'0 0.0
2016-Sep-24 22:30N 47°35' W 122°21'0 0.0
2016-Sep-24 21:33N 47°35' W 122°21'0 0.0
2016-Sep-24 19:33N 47°35' W 122°21'0 0.0
2016-Sep-24 18:33N 47°35' W 122°21'0 0.0
2016-Sep-24 17:33N 47°35' W 122°21'0 0.0
2016-Sep-24 16:34N 47°35' W 122°21'0 0.0
2016-Sep-24 14:33N 47°35' W 122°21'0 0.0
2016-Sep-24 12:33N 47°35' W 122°21'0 0.0
2016-Sep-24 10:30N 47°35' W 122°21'0 0.1
2016-Sep-24 09:33N 47°35' W 122°21'7913.1
2016-Sep-24 03:33N 48°15' W 124°01'2322.7
2016-Sep-24 02:33N 48°25' W 124°32'2222.4
2016-Sep-24 01:34N 48°28' W 125°06'2121.3
2016-Sep-24 00:33N 48°17' W 125°33'13620.7
2016-Sep-23 18:00N 46°54' W 128°12'51221.3 310 / 301018.010.8 3.015.6 7.917.8
2016-Sep-22 18:00N 41°24' W 137°18'54722.8 220 / 281023.410.8 1.521.113.521.7
2016-Sep-21 18:00N 34°48' W 145°18'   090 / 141028.510.8 1.021.113.525.0

Dump ship's entire track history